CDT,Max TemperatureF,Mean TemperatureF,Min TemperatureF,Max Dew PointF,MeanDew PointF,Min DewpointF,Max Humidity, Mean Humidity, Min Humidity, Max Sea Level PressureIn, Mean Sea Level PressureIn, Min Sea Level PressureIn, Max VisibilityMiles, Mean VisibilityMiles, Min VisibilityMiles, Max Wind SpeedMPH, Mean Wind SpeedMPH, Max Gust SpeedMPH,PrecipitationIn, CloudCover, Events, WindDirDegrees
2011-10-1,65,53,41,42,39,36,89,64,39,30.26,30.19,30.07,10,10,10,18,7,24,0.00,0,,3
2011-10-2,69,55,40,43,38,33,92,60,27,30.29,30.23,30.18,10,10,10,12,4,16,0.00,0,,351
2011-10-3,76,58,40,46,41,36,92,60,27,30.27,30.21,30.17,10,10,7,10,2,14,0.00,0,,264
2011-10-4,80,61,42,52,45,40,92,60,28,30.30,30.24,30.20,10,10,4,8,1,12,0.00,0,,88
2011-10-5,82,64,45,54,48,43,93,62,30,30.27,30.21,30.16,10,9,2,8,2,12,0.00,0,,99
2011-10-6,84,67,49,57,51,46,96,65,34,30.24,30.19,30.17,10,8,1,12,4,15,0.00,0,,144
2011-10-7,83,68,53,55,53,50,93,63,33,30.32,30.25,30.21,10,10,8,13,5,20,0.00,0,,149
2011-10-8,81,67,52,58,54,50,89,66,42,30.35,30.28,30.24,10,10,7,15,5,22,0.00,0,,146
2011-10-9,80,64,47,55,48,39,100,62,23,30.32,30.24,30.15,10,7,1,14,4,21,0.00,0,,105
2011-10-10,80,65,50,57,54,48,89,67,45,30.17,30.09,30.00,10,10,10,13,3,18,0.00,2,,104
2011-10-11,81,67,53,59,54,51,100,70,39,30.00,29.95,29.86,10,7,1,9,2,12,0.00,1,,100
2011-10-12,77,69,60,63,60,57,90,74,58,29.87,29.77,29.68,10,8,2,14,5,18,0.46,5,Rain-Thunderstorm,228
2011-10-13,70,63,56,58,55,45,90,72,53,29.73,29.64,29.61,10,10,8,16,8,25,0.01,6,Rain,265
2011-10-14,74,62,50,45,39,34,71,47,23,29.96,29.83,29.74,10,10,10,21,10,26,0.00,1,,271
2011-10-15,71,57,43,39,36,34,76,51,26,30.12,30.05,29.96,10,10,9,15,6,20,0.00,0,,252
2011-10-16,84,67,50,52,46,36,66,48,29,30.04,29.94,29.84,10,10,10,24,11,36,0.00,0,,223
2011-10-17,72,62,52,45,41,37,64,50,35,29.98,29.91,29.82,10,10,10,14,6,17,0.00,2,,48
2011-10-18,54,50,46,45,42,37,93,74,54,29.82,29.78,29.74,10,9,4,20,10,25,0.35,7,Rain-Thunderstorm,5
2011-10-19,48,46,44,42,40,37,89,80,71,29.77,29.71,29.66,10,10,7,21,12,31,0.09,8,Rain,306
2011-10-20,58,47,35,37,35,33,92,66,40,30.05,29.89,29.75,10,10,10,21,10,26,0.00,4,,267
2011-10-21,63,49,35,36,33,30,85,58,30,30.18,30.13,30.06,10,10,10,16,4,20,0.00,0,,263
2011-10-22,70,52,33,43,38,31,96,65,33,30.19,30.11,30.04,10,10,9,13,3,20,0.00,0,,206
2011-10-23,69,57,44,44,43,40,89,65,40,30.09,30.05,30.01,10,10,10,12,4,14,0.00,0,,213
2011-10-24,76,61,45,52,44,35,93,59,25,30.19,30.13,30.07,10,9,2,15,5,20,0.00,0,,261
2011-10-25,79,60,41,54,45,39,89,59,28,30.18,30.08,29.94,10,10,4,18,7,28,0.00,0,,202
2011-10-26,76,64,52,61,54,46,93,73,52,29.95,29.88,29.83,10,7,2,20,9,25,0.37,6,Rain,274
2011-10-27,52,50,48,52,45,40,93,81,68,30.13,29.98,29.88,10,8,3,17,9,23,0.18,7,Rain,3
2011-10-28,57,46,34,40,36,31,89,65,41,30.17,30.13,30.09,10,10,10,17,6,23,0.00,4,,32
2011-10-29,61,46,31,37,30,22,89,56,22,30.20,30.15,30.12,10,10,5,15,3,21,0.00,0,,289
2011-10-30,62,48,34,34,30,26,89,57,25,30.24,30.15,30.08,10,10,10,16,7,25,0.00,1,,197
2011-10-31,66,53,39,38,33,28,79,52,24,30.18,30.13,30.09,10,10,10,20,6,26,0.00,0,,246